sensor_id;sensor_type;location;lat;lon;timestamp;P1;durP1;ratioP1;P2;durP2;ratioP2
20365;SDS011;10341;49.894;8.822;2022-10-04T00:03:22;7.97;;;4.78;;
20365;SDS011;10341;49.894;8.822;2022-10-04T00:08:56;10.05;;;4.82;;
20365;SDS011;10341;49.894;8.822;2022-10-04T00:14:28;6.93;;;3.83;;
20365;SDS011;10341;49.894;8.822;2022-10-04T00:19:53;7.05;;;4.22;;
20365;SDS011;10341;49.894;8.822;2022-10-04T00:25:15;7.93;;;4.75;;
20365;SDS011;10341;49.894;8.822;2022-10-04T00:30:37;8.55;;;4.40;;
20365;SDS011;10341;49.894;8.822;2022-10-04T00:35:57;8.95;;;5.18;;
20365;SDS011;10341;49.894;8.822;2022-10-04T00:41:16;8.20;;;4.57;;
20365;SDS011;10341;49.894;8.822;2022-10-04T00:46:38;8.38;;;4.40;;
20365;SDS011;10341;49.894;8.822;2022-10-04T00:52:00;8.80;;;4.68;;
20365;SDS011;10341;49.894;8.822;2022-10-04T00:57:27;9.43;;;5.00;;
20365;SDS011;10341;49.894;8.822;2022-10-04T01:02:51;13.18;;;5.40;;
20365;SDS011;10341;49.894;8.822;2022-10-04T01:08:26;10.80;;;4.93;;
20365;SDS011;10341;49.894;8.822;2022-10-04T01:13:50;9.15;;;4.70;;
20365;SDS011;10341;49.894;8.822;2022-10-04T01:19:37;10.98;;;4.97;;
20365;SDS011;10341;49.894;8.822;2022-10-04T01:25:07;10.43;;;4.93;;
20365;SDS011;10341;49.894;8.822;2022-10-04T01:30:27;10.35;;;5.18;;
20365;SDS011;10341;49.894;8.822;2022-10-04T01:35:46;14.40;;;5.78;;
20365;SDS011;10341;49.894;8.822;2022-10-04T01:41:06;14.40;;;5.50;;
20365;SDS011;10341;49.894;8.822;2022-10-04T01:46:29;11.73;;;5.63;;
20365;SDS011;10341;49.894;8.822;2022-10-04T01:51:55;16.23;;;6.88;;
20365;SDS011;10341;49.894;8.822;2022-10-04T01:57:21;10.55;;;5.47;;
20365;SDS011;10341;49.894;8.822;2022-10-04T02:08:12;11.82;;;6.22;;
20365;SDS011;10341;49.894;8.822;2022-10-04T02:13:35;13.40;;;6.15;;
20365;SDS011;10341;49.894;8.822;2022-10-04T02:18:57;12.00;;;6.20;;
20365;SDS011;10341;49.894;8.822;2022-10-04T02:24:17;14.18;;;7.18;;
20365;SDS011;10341;49.894;8.822;2022-10-04T02:29:38;11.77;;;5.45;;
20365;SDS011;10341;49.894;8.822;2022-10-04T02:34:58;9.20;;;5.38;;
20365;SDS011;10341;49.894;8.822;2022-10-04T02:40:20;11.85;;;5.30;;
20365;SDS011;10341;49.894;8.822;2022-10-04T02:45:45;9.85;;;5.10;;
20365;SDS011;10341;49.894;8.822;2022-10-04T02:56:35;11.82;;;4.50;;
20365;SDS011;10341;49.894;8.822;2022-10-04T03:01:57;10.23;;;5.15;;
20365;SDS011;10341;49.894;8.822;2022-10-04T03:07:18;11.15;;;5.53;;
20365;SDS011;10341;49.894;8.822;2022-10-04T03:12:39;12.13;;;5.50;;
20365;SDS011;10341;49.894;8.822;2022-10-04T03:17:59;13.55;;;6.35;;
20365;SDS011;10341;49.894;8.822;2022-10-04T03:28:38;14.30;;;5.72;;
20365;SDS011;10341;49.894;8.822;2022-10-04T03:33:58;9.73;;;5.40;;
20365;SDS011;10341;49.894;8.822;2022-10-04T03:44:44;11.13;;;5.25;;
20365;SDS011;10341;49.894;8.822;2022-10-04T03:55:36;10.35;;;5.07;;
20365;SDS011;10341;49.894;8.822;2022-10-04T04:01:10;12.50;;;5.47;;
20365;SDS011;10341;49.894;8.822;2022-10-04T04:12:23;9.75;;;4.68;;
20365;SDS011;10341;49.894;8.822;2022-10-04T04:18:02;9.23;;;4.93;;
20365;SDS011;10341;49.894;8.822;2022-10-04T04:23:34;8.85;;;5.05;;
20365;SDS011;10341;49.894;8.822;2022-10-04T04:29:07;7.05;;;4.13;;
20365;SDS011;10341;49.894;8.822;2022-10-04T04:34:43;7.35;;;4.50;;
20365;SDS011;10341;49.894;8.822;2022-10-04T04:40:21;8.98;;;5.10;;
20365;SDS011;10341;49.894;8.822;2022-10-04T04:45:42;7.82;;;4.75;;
20365;SDS011;10341;49.894;8.822;2022-10-04T04:51:03;12.00;;;5.22;;
20365;SDS011;10341;49.894;8.822;2022-10-04T04:56:24;9.88;;;5.05;;
20365;SDS011;10341;49.894;8.822;2022-10-04T05:01:46;8.35;;;4.60;;
20365;SDS011;10341;49.894;8.822;2022-10-04T05:07:15;10.77;;;4.68;;
20365;SDS011;10341;49.894;8.822;2022-10-04T05:12:37;8.30;;;4.95;;
20365;SDS011;10341;49.894;8.822;2022-10-04T05:17:57;10.82;;;5.50;;
20365;SDS011;10341;49.894;8.822;2022-10-04T05:23:17;8.95;;;4.90;;
20365;SDS011;10341;49.894;8.822;2022-10-04T05:28:36;11.52;;;4.50;;
20365;SDS011;10341;49.894;8.822;2022-10-04T05:33:56;7.57;;;4.63;;
20365;SDS011;10341;49.894;8.822;2022-10-04T05:39:21;9.23;;;4.53;;
20365;SDS011;10341;49.894;8.822;2022-10-04T05:50:17;8.10;;;4.55;;
20365;SDS011;10341;49.894;8.822;2022-10-04T06:13:31;6.90;;;4.45;;
20365;SDS011;10341;49.894;8.822;2022-10-04T06:24:28;9.48;;;5.43;;
20365;SDS011;10341;49.894;8.822;2022-10-04T06:29:57;7.13;;;4.10;;
20365;SDS011;10341;49.894;8.822;2022-10-04T06:41:01;8.07;;;4.60;;
20365;SDS011;10341;49.894;8.822;2022-10-04T06:46:28;8.75;;;4.65;;
20365;SDS011;10341;49.894;8.822;2022-10-04T07:03:30;10.73;;;5.05;;
20365;SDS011;10341;49.894;8.822;2022-10-04T07:08:56;12.63;;;6.13;;
20365;SDS011;10341;49.894;8.822;2022-10-04T07:14:23;11.98;;;5.38;;
20365;SDS011;10341;49.894;8.822;2022-10-04T07:19:49;10.20;;;5.13;;
20365;SDS011;10341;49.894;8.822;2022-10-04T07:25:14;10.57;;;4.85;;
20365;SDS011;10341;49.894;8.822;2022-10-04T07:30:39;8.10;;;4.45;;
20365;SDS011;10341;49.894;8.822;2022-10-04T07:36:07;6.55;;;4.00;;
20365;SDS011;10341;49.894;8.822;2022-10-04T07:41:44;8.50;;;5.00;;
20365;SDS011;10341;49.894;8.822;2022-10-04T07:47:18;6.30;;;4.23;;
20365;SDS011;10341;49.894;8.822;2022-10-04T08:04:04;8.90;;;4.25;;
20365;SDS011;10341;49.894;8.822;2022-10-04T08:09:40;7.35;;;4.15;;
20365;SDS011;10341;49.894;8.822;2022-10-04T08:38:08;5.10;;;3.20;;
20365;SDS011;10341;49.894;8.822;2022-10-04T08:49:23;6.05;;;3.75;;
20365;SDS011;10341;49.894;8.822;2022-10-04T09:07:10;5.13;;;3.08;;
20365;SDS011;10341;49.894;8.822;2022-10-04T09:41:27;5.25;;;2.55;;
20365;SDS011;10341;49.894;8.822;2022-10-04T09:53:09;3.05;;;2.33;;
20365;SDS011;10341;49.894;8.822;2022-10-04T09:59:09;4.55;;;2.15;;
20365;SDS011;10341;49.894;8.822;2022-10-04T10:16:37;5.53;;;2.53;;
20365;SDS011;10341;49.894;8.822;2022-10-04T10:28:24;4.38;;;1.90;;
20365;SDS011;10341;49.894;8.822;2022-10-04T11:02:55;4.25;;;1.80;;
20365;SDS011;10341;49.894;8.822;2022-10-04T11:08:44;4.90;;;1.98;;
20365;SDS011;10341;49.894;8.822;2022-10-04T11:19:54;5.03;;;1.90;;
20365;SDS011;10341;49.894;8.822;2022-10-04T11:25:45;4.90;;;1.90;;
20365;SDS011;10341;49.894;8.822;2022-10-04T11:31:25;3.17;;;1.65;;
20365;SDS011;10341;49.894;8.822;2022-10-04T11:37:29;4.00;;;1.80;;
20365;SDS011;10341;49.894;8.822;2022-10-04T12:12:43;3.85;;;1.80;;
20365;SDS011;10341;49.894;8.822;2022-10-04T12:40:42;3.08;;;1.88;;
20365;SDS011;10341;49.894;8.822;2022-10-04T12:46:23;2.85;;;1.83;;
20365;SDS011;10341;49.894;8.822;2022-10-04T13:09:18;3.47;;;1.45;;
20365;SDS011;10341;49.894;8.822;2022-10-04T13:42:14;2.75;;;1.50;;
20365;SDS011;10341;49.894;8.822;2022-10-04T13:47:58;1.60;;;1.30;;
20365;SDS011;10341;49.894;8.822;2022-10-04T14:33:54;3.20;;;1.27;;
20365;SDS011;10341;49.894;8.822;2022-10-04T14:44:59;3.03;;;1.40;;
20365;SDS011;10341;49.894;8.822;2022-10-04T14:50:25;1.88;;;1.30;;
20365;SDS011;10341;49.894;8.822;2022-10-04T15:02:18;3.20;;;1.63;;
20365;SDS011;10341;49.894;8.822;2022-10-04T15:07:31;6.75;;;1.45;;
20365;SDS011;10341;49.894;8.822;2022-10-04T15:35:17;2.05;;;1.38;;
20365;SDS011;10341;49.894;8.822;2022-10-04T15:41:02;5.03;;;1.67;;
20365;SDS011;10341;49.894;8.822;2022-10-04T15:46:49;3.60;;;2.00;;
20365;SDS011;10341;49.894;8.822;2022-10-04T15:58:13;3.72;;;1.73;;
20365;SDS011;10341;49.894;8.822;2022-10-04T16:20:24;4.72;;;2.17;;
20365;SDS011;10341;49.894;8.822;2022-10-04T16:25:56;3.08;;;2.00;;
20365;SDS011;10341;49.894;8.822;2022-10-04T16:37:12;2.63;;;1.83;;
20365;SDS011;10341;49.894;8.822;2022-10-04T17:16:10;4.68;;;2.53;;
20365;SDS011;10341;49.894;8.822;2022-10-04T17:27:26;4.57;;;2.50;;
20365;SDS011;10341;49.894;8.822;2022-10-04T17:38:30;5.07;;;3.30;;
20365;SDS011;10341;49.894;8.822;2022-10-04T17:44:17;5.32;;;3.08;;
20365;SDS011;10341;49.894;8.822;2022-10-04T17:50:05;7.30;;;4.18;;
20365;SDS011;10341;49.894;8.822;2022-10-04T17:55:56;9.18;;;4.88;;
20365;SDS011;10341;49.894;8.822;2022-10-04T18:01:28;14.52;;;5.55;;
20365;SDS011;10341;49.894;8.822;2022-10-04T18:12:42;9.60;;;4.82;;
20365;SDS011;10341;49.894;8.822;2022-10-04T18:18:16;7.60;;;3.35;;
20365;SDS011;10341;49.894;8.822;2022-10-04T18:23:36;5.18;;;2.35;;
20365;SDS011;10341;49.894;8.822;2022-10-04T18:28:58;5.88;;;3.40;;
20365;SDS011;10341;49.894;8.822;2022-10-04T18:34:26;4.15;;;2.42;;
20365;SDS011;10341;49.894;8.822;2022-10-04T18:39:47;8.85;;;3.08;;
20365;SDS011;10341;49.894;8.822;2022-10-04T18:45:27;6.05;;;3.72;;
20365;SDS011;10341;49.894;8.822;2022-10-04T18:50:51;6.18;;;3.30;;
20365;SDS011;10341;49.894;8.822;2022-10-04T18:56:12;6.82;;;3.90;;
20365;SDS011;10341;49.894;8.822;2022-10-04T19:30:43;4.97;;;2.33;;
20365;SDS011;10341;49.894;8.822;2022-10-04T19:53:18;2.40;;;1.70;;
20365;SDS011;10341;49.894;8.822;2022-10-04T19:58:42;3.65;;;2.03;;
20365;SDS011;10341;49.894;8.822;2022-10-04T20:04:06;4.32;;;2.45;;
20365;SDS011;10341;49.894;8.822;2022-10-04T20:32:10;5.38;;;2.55;;
20365;SDS011;10341;49.894;8.822;2022-10-04T20:48:41;4.25;;;2.45;;
20365;SDS011;10341;49.894;8.822;2022-10-04T20:54:02;3.15;;;2.45;;
20365;SDS011;10341;49.894;8.822;2022-10-04T20:59:21;3.53;;;2.70;;
20365;SDS011;10341;49.894;8.822;2022-10-04T21:04:41;10.10;;;3.40;;
20365;SDS011;10341;49.894;8.822;2022-10-04T21:10:18;6.68;;;3.40;;
20365;SDS011;10341;49.894;8.822;2022-10-04T21:15:38;4.80;;;3.33;;
20365;SDS011;10341;49.894;8.822;2022-10-04T21:21:13;6.13;;;3.30;;
20365;SDS011;10341;49.894;8.822;2022-10-04T21:26:38;4.57;;;3.22;;
20365;SDS011;10341;49.894;8.822;2022-10-04T21:32:13;5.78;;;3.75;;
20365;SDS011;10341;49.894;8.822;2022-10-04T21:37:33;5.97;;;3.53;;
20365;SDS011;10341;49.894;8.822;2022-10-04T21:42:52;6.63;;;3.10;;
20365;SDS011;10341;49.894;8.822;2022-10-04T21:48:12;5.65;;;3.28;;
20365;SDS011;10341;49.894;8.822;2022-10-04T21:53:31;7.07;;;3.60;;
20365;SDS011;10341;49.894;8.822;2022-10-04T21:58:51;8.77;;;3.58;;
20365;SDS011;10341;49.894;8.822;2022-10-04T22:04:10;4.63;;;2.83;;
20365;SDS011;10341;49.894;8.822;2022-10-04T22:14:51;5.25;;;2.92;;
20365;SDS011;10341;49.894;8.822;2022-10-04T22:20:10;4.55;;;3.42;;
20365;SDS011;10341;49.894;8.822;2022-10-04T22:25:30;5.65;;;3.25;;
20365;SDS011;10341;49.894;8.822;2022-10-04T22:30:49;7.45;;;3.58;;
20365;SDS011;10341;49.894;8.822;2022-10-04T22:36:25;5.60;;;3.45;;
20365;SDS011;10341;49.894;8.822;2022-10-04T22:41:54;4.72;;;3.70;;
20365;SDS011;10341;49.894;8.822;2022-10-04T22:47:15;8.48;;;3.90;;
20365;SDS011;10341;49.894;8.822;2022-10-04T22:52:35;4.68;;;3.65;;
20365;SDS011;10341;49.894;8.822;2022-10-04T22:57:55;7.15;;;4.10;;
20365;SDS011;10341;49.894;8.822;2022-10-04T23:03:27;8.32;;;4.05;;
20365;SDS011;10341;49.894;8.822;2022-10-04T23:08:48;7.95;;;4.20;;
20365;SDS011;10341;49.894;8.822;2022-10-04T23:14:08;4.87;;;3.20;;
20365;SDS011;10341;49.894;8.822;2022-10-04T23:19:27;6.82;;;4.15;;
20365;SDS011;10341;49.894;8.822;2022-10-04T23:24:48;5.63;;;3.40;;
20365;SDS011;10341;49.894;8.822;2022-10-04T23:30:11;4.38;;;2.80;;
20365;SDS011;10341;49.894;8.822;2022-10-04T23:35:32;4.90;;;3.28;;
20365;SDS011;10341;49.894;8.822;2022-10-04T23:40:52;7.50;;;3.50;;
20365;SDS011;10341;49.894;8.822;2022-10-04T23:46:15;6.88;;;3.88;;
20365;SDS011;10341;49.894;8.822;2022-10-04T23:51:37;7.15;;;3.72;;
20365;SDS011;10341;49.894;8.822;2022-10-04T23:56:56;6.55;;;4.10;;
